createdAt,value
2023-05-15T05:05:14.707Z,4.05
2023-05-15T05:10:18.721Z,4.40
2023-05-15T05:15:22.354Z,4.23
2023-05-15T05:20:27.472Z,4.83
2023-05-15T05:25:31.325Z,4.57
2023-05-15T05:30:35.192Z,4.57
2023-05-15T05:35:40.244Z,4.57
2023-05-15T05:40:44.270Z,3.72
2023-05-15T05:45:48.335Z,3.30
2023-05-15T05:50:53.423Z,3.85
2023-05-15T05:55:57.365Z,3.87
2023-05-15T06:01:01.210Z,3.65
2023-05-15T06:06:07.655Z,3.55
2023-05-15T06:11:11.564Z,3.72
2023-05-15T06:16:15.125Z,2.50
2023-05-15T06:21:20.048Z,3.37
2023-05-15T06:26:23.964Z,3.85
2023-05-15T06:31:27.637Z,4.20
2023-05-15T06:36:32.651Z,3.43
2023-05-15T06:41:36.286Z,3.25
2023-05-15T06:46:39.921Z,3.53
2023-05-15T06:51:44.935Z,3.43
2023-05-15T06:56:48.605Z,2.75
2023-05-15T07:01:52.177Z,2.87
2023-05-15T07:06:57.147Z,2.80
2023-05-15T07:12:00.712Z,2.75
2023-05-15T07:17:04.378Z,3.20
2023-05-15T07:22:09.359Z,2.67
2023-05-15T07:27:12.929Z,2.78
2023-05-15T07:32:16.556Z,2.83
2023-05-15T07:37:21.506Z,3.20
2023-05-15T07:42:26.004Z,3.17
2023-05-15T07:52:34.759Z,2.33
2023-05-15T07:57:39.867Z,2.33
2023-05-15T08:02:46.234Z,2.28
2023-05-15T08:07:51.463Z,2.97
2023-05-15T08:12:55.178Z,2.55
2023-05-15T08:17:58.797Z,2.33
2023-05-15T08:23:03.802Z,2.03
2023-05-15T08:28:07.391Z,2.22
2023-05-15T08:33:11.006Z,1.87
2023-05-15T08:38:16.077Z,1.80
2023-05-15T08:43:22.319Z,1.95
2023-05-15T08:48:29.690Z,2.00
2023-05-15T08:53:34.890Z,1.95
2023-05-15T08:58:39.175Z,1.85
2023-05-15T09:03:42.812Z,1.27
2023-05-15T09:08:48.344Z,1.63
2023-05-15T09:13:52.028Z,1.60
2023-05-15T09:18:55.952Z,1.30
2023-05-15T09:24:17.895Z,1.43
2023-05-15T09:29:21.440Z,1.50
2023-05-15T09:34:31.546Z,1.60
2023-05-15T09:39:42.137Z,1.58
2023-05-15T09:44:47.302Z,1.23
2023-05-15T09:49:51.090Z,1.40
2023-05-15T09:54:56.080Z,1.20
2023-05-15T10:00:09.867Z,0.90
2023-05-15T10:05:14.931Z,1.30
2023-05-15T10:10:19.963Z,1.13
2023-05-15T10:15:24.363Z,0.80
2023-05-15T10:25:40.241Z,1.12
2023-05-15T10:30:44.223Z,0.40
2023-05-15T10:35:49.690Z,0.25
2023-05-15T10:41:09.171Z,0.20
2023-05-15T10:46:21.011Z,0.20
2023-05-15T10:51:29.929Z,0.10
2023-05-15T10:56:38.063Z,0.30
2023-05-15T11:01:42.675Z,0.43
2023-05-15T11:06:48.499Z,0.70
2023-05-15T11:11:57.695Z,0.68
2023-05-15T11:17:04.001Z,0.60
2023-05-15T11:22:30.136Z,1.10
2023-05-15T11:27:40.220Z,1.05
2023-05-15T11:32:52.137Z,1.00
2023-05-15T11:37:57.398Z,0.73
2023-05-15T11:43:04.737Z,0.70
2023-05-15T11:48:13.499Z,0.90
2023-05-15T11:53:18.061Z,1.25
2023-05-15T12:03:28.495Z,1.20
2023-05-15T12:08:33.994Z,1.20
2023-05-15T12:13:38.981Z,1.08
2023-05-15T12:18:42.663Z,0.93
2023-05-15T12:23:59.855Z,1.40
2023-05-15T12:29:11.854Z,1.33
2023-05-15T12:34:15.735Z,1.17
2023-05-15T12:39:19.294Z,3.00
2023-05-15T12:44:27.239Z,1.25
2023-05-15T12:49:31.200Z,1.45
2023-05-15T12:54:40.985Z,1.90
2023-05-15T12:59:46.110Z,1.58
2023-05-15T13:04:49.688Z,2.12
2023-05-15T13:10:05.793Z,2.13
2023-05-15T13:15:24.287Z,1.80
2023-05-15T13:20:29.734Z,1.65
2023-05-15T13:25:33.587Z,2.40
2023-05-15T13:30:41.790Z,1.37
2023-05-15T13:35:45.816Z,1.85
2023-05-15T13:40:49.429Z,1.50
2023-05-15T13:45:54.332Z,1.10
2023-05-15T13:50:57.881Z,2.33
2023-05-15T13:56:01.474Z,1.50
2023-05-15T14:01:08.095Z,1.85
2023-05-15T14:06:11.653Z,1.58
2023-05-15T14:11:15.460Z,1.43
2023-05-15T14:16:20.368Z,1.30
2023-05-15T14:21:24.129Z,2.03
2023-05-15T14:26:27.716Z,1.67
2023-05-15T14:31:32.604Z,1.40
2023-05-15T14:36:36.320Z,2.80
2023-05-15T14:41:39.886Z,1.30
2023-05-15T14:46:45.616Z,1.92
2023-05-15T14:51:49.245Z,1.50
2023-05-15T14:56:52.774Z,0.93
2023-05-15T15:01:57.804Z,0.90
2023-05-15T15:07:03.959Z,0.62
2023-05-15T15:12:08.330Z,2.50
2023-05-15T15:17:13.252Z,1.75
2023-05-15T15:22:16.786Z,0.98
2023-05-15T15:27:20.277Z,0.90
2023-05-15T15:32:25.397Z,1.33
2023-05-15T15:37:31.480Z,1.27
2023-05-15T15:42:35.451Z,1.15
2023-05-15T15:47:40.392Z,1.27
2023-05-15T15:52:43.948Z,0.88
2023-05-15T15:57:47.481Z,0.60
2023-05-15T16:02:52.507Z,0.88
2023-05-15T16:07:56.404Z,0.40
2023-05-15T16:12:59.931Z,0.77
2023-05-15T16:18:05.132Z,0.57
2023-05-15T16:23:09.459Z,1.30
2023-05-15T16:28:13.062Z,0.55
2023-05-15T16:33:18.595Z,0.50
2023-05-15T16:38:22.832Z,0.73
2023-05-15T16:43:26.499Z,0.40
2023-05-15T16:48:31.552Z,0.40
2023-05-15T16:53:35.150Z,0.40
2023-05-15T16:58:40.801Z,0.73
2023-05-15T17:03:45.844Z,0.80
2023-05-15T17:08:49.419Z,0.73
2023-05-15T17:13:53.192Z,0.40
2023-05-15T17:18:58.143Z,0.40
2023-05-15T17:24:02.033Z,0.70
2023-05-15T17:29:05.841Z,0.88
2023-05-15T17:34:11.661Z,0.88
2023-05-15T17:39:15.435Z,1.00
2023-05-15T17:44:19.043Z,0.70
2023-05-15T17:49:24.168Z,0.40
2023-05-15T17:54:27.779Z,0.57
2023-05-15T17:59:31.961Z,0.70
2023-05-15T18:04:37.202Z,0.60
2023-05-15T18:09:40.778Z,0.75
2023-05-15T18:14:44.554Z,0.63
2023-05-15T18:19:49.490Z,0.83
2023-05-15T18:24:53.042Z,0.75
2023-05-15T18:29:56.825Z,1.23
2023-05-15T18:35:02.677Z,0.50
2023-05-15T18:40:07.554Z,0.50
2023-05-15T18:45:13.163Z,0.50
2023-05-15T18:50:18.784Z,0.60
2023-05-15T18:55:22.707Z,0.47
2023-05-15T19:00:37.216Z,0.90
2023-05-15T19:05:43.832Z,0.50
2023-05-15T19:10:49.308Z,0.80
2023-05-15T19:15:53.102Z,0.70
2023-05-15T19:20:58.058Z,1.40
2023-05-15T19:26:02.075Z,1.50
2023-05-15T19:31:08.200Z,2.15
2023-05-15T19:36:17.962Z,0.70
2023-05-15T19:41:22.313Z,0.60
2023-05-15T19:46:25.912Z,1.25
2023-05-15T19:51:31.386Z,0.63
2023-05-15T19:56:35.260Z,0.60
2023-05-15T20:01:38.814Z,0.90
2023-05-15T20:06:43.754Z,0.70
2023-05-15T20:11:47.328Z,1.10
2023-05-15T20:16:50.859Z,0.73
2023-05-15T20:21:55.894Z,0.65
2023-05-15T20:26:59.513Z,1.17
2023-05-15T20:32:03.076Z,0.77
2023-05-15T20:37:08.150Z,0.93
2023-05-15T20:42:11.769Z,0.75
2023-05-15T20:47:15.550Z,2.77
2023-05-15T20:52:20.878Z,0.62
2023-05-15T20:57:24.440Z,0.98
2023-05-15T21:02:28.017Z,0.70
2023-05-15T21:07:33.004Z,1.90
2023-05-15T21:12:36.629Z,1.55
2023-05-15T21:17:40.276Z,0.60
2023-05-15T21:22:45.274Z,0.97
2023-05-15T21:27:48.822Z,0.68
2023-05-15T21:32:52.447Z,0.85
2023-05-15T21:37:57.506Z,0.97
2023-05-15T21:43:01.090Z,1.87
2023-05-15T21:48:05.160Z,0.82
2023-05-15T21:53:10.445Z,0.95
2023-05-15T21:58:14.278Z,1.30
2023-05-15T22:03:18.172Z,1.08
2023-05-15T22:08:23.144Z,0.70
2023-05-15T22:13:26.854Z,1.17
2023-05-15T22:18:31.516Z,0.93
2023-05-15T22:23:36.513Z,1.00
2023-05-15T22:28:40.399Z,2.03
